createdAt,value
2024-04-10T00:00:46.032Z,11.99
2024-04-10T00:06:00.584Z,11.94
2024-04-10T00:11:08.131Z,11.84
2024-04-10T00:16:14.141Z,11.42
2024-04-10T00:21:22.018Z,11.80
2024-04-10T00:26:29.296Z,11.57
2024-04-10T00:31:33.843Z,11.66
2024-04-10T00:36:38.298Z,10.99
2024-04-10T00:41:45.841Z,11.59
2024-04-10T00:46:52.436Z,11.48
2024-04-10T00:51:58.231Z,11.65
2024-04-10T00:57:06.898Z,11.48
2024-04-10T01:02:11.574Z,11.69
2024-04-10T01:07:15.980Z,11.24
2024-04-10T01:12:27.806Z,11.42
2024-04-10T01:17:32.971Z,11.09
2024-04-10T01:22:38.461Z,11.03
2024-04-10T01:27:45.455Z,11.47
2024-04-10T01:32:50.239Z,11.48
2024-04-10T01:37:58.444Z,10.97
2024-04-10T01:43:10.149Z,11.18
2024-04-10T01:48:14.946Z,11.36
2024-04-10T01:53:20.160Z,10.85
2024-04-10T01:58:31.148Z,11.14
2024-04-10T02:03:35.896Z,10.83
2024-04-10T02:08:40.425Z,10.79
2024-04-10T02:13:48.194Z,9.81
2024-04-10T02:18:52.801Z,10.21
2024-04-10T02:24:01.029Z,10.82
2024-04-10T02:29:13.088Z,10.99
2024-04-10T02:34:17.884Z,10.82
2024-04-10T02:39:22.492Z,10.38
2024-04-10T02:44:29.742Z,10.97
2024-04-10T02:49:34.536Z,11.08
2024-04-10T02:54:39.430Z,10.66
2024-04-10T02:59:46.553Z,10.88
2024-04-10T03:04:51.118Z,10.60
2024-04-10T03:09:56.251Z,11.01
2024-04-10T03:15:03.352Z,11.21
2024-04-10T03:20:08.643Z,11.01
2024-04-10T03:25:16.103Z,10.60
2024-04-10T03:30:23.292Z,11.16
2024-04-10T03:35:27.878Z,11.14
2024-04-10T03:40:32.403Z,10.81
2024-04-10T03:45:50.361Z,10.78
2024-04-10T03:51:01.852Z,10.98
2024-04-10T03:56:06.764Z,10.86
2024-04-10T04:01:13.869Z,11.04
2024-04-10T04:06:18.428Z,11.23
2024-04-10T04:11:23.058Z,11.21
2024-04-10T04:16:31.423Z,11.17
2024-04-10T04:22:01.435Z,10.69
2024-04-10T04:27:12.763Z,10.88
2024-04-10T04:32:19.838Z,10.69
2024-04-10T04:37:24.456Z,10.63
2024-04-10T04:42:30.406Z,10.49
2024-04-10T04:47:37.789Z,10.90
2024-04-10T04:52:42.348Z,10.72
2024-04-10T04:57:47.008Z,11.18
2024-04-10T05:02:54.590Z,11.21
2024-04-10T05:08:00.579Z,10.59
2024-04-10T05:13:05.355Z,10.94
2024-04-10T05:18:12.939Z,11.16
2024-04-10T05:23:18.317Z,10.50
2024-04-10T05:28:25.506Z,10.64
2024-04-10T05:33:46.119Z,11.03
2024-04-10T05:38:51.315Z,11.26
2024-04-10T05:43:55.881Z,11.34
2024-04-10T05:49:03.196Z,11.19
2024-04-10T05:54:07.774Z,11.20
2024-04-10T05:59:12.647Z,10.93
2024-04-10T06:04:20.475Z,11.12
2024-04-10T06:09:25.277Z,10.95
2024-04-10T06:14:30.333Z,11.12
2024-04-10T06:19:38.203Z,11.10
2024-04-10T06:24:46.282Z,11.46
2024-04-10T06:29:51.343Z,11.23
2024-04-10T06:35:01.104Z,11.73
2024-04-10T06:40:06.449Z,11.59
2024-04-10T06:45:10.938Z,11.75
2024-04-10T06:50:18.142Z,11.90
2024-04-10T06:55:22.603Z,11.90
2024-04-10T07:00:27.054Z,11.88
2024-04-10T07:05:34.599Z,11.61
2024-04-10T07:10:39.492Z,11.47
2024-04-10T07:15:44.029Z,11.73
2024-04-10T07:21:01.053Z,11.89
2024-04-10T07:26:13.634Z,12.22
2024-04-10T07:31:21.161Z,11.81
2024-04-10T07:36:28.565Z,12.23
2024-04-10T07:41:33.288Z,12.28
2024-04-10T07:46:37.967Z,12.30
2024-04-10T07:51:45.053Z,12.33
2024-04-10T07:56:49.537Z,12.30
2024-04-10T08:01:54.308Z,12.28
2024-04-10T08:07:01.335Z,12.31
2024-04-10T08:12:06.788Z,12.29
2024-04-10T08:17:11.850Z,12.49
2024-04-10T08:22:18.939Z,12.48
2024-04-10T08:27:23.298Z,12.84
2024-04-10T08:32:27.725Z,13.04
2024-04-10T08:37:36.477Z,12.96
2024-04-10T08:42:45.649Z,12.97
2024-04-10T08:47:54.153Z,13.01
2024-04-10T08:53:03.093Z,12.94
2024-04-10T08:58:08.197Z,13.05
2024-04-10T09:03:14.165Z,13.13
2024-04-10T09:08:21.617Z,13.47
2024-04-10T09:13:30.731Z,13.54
2024-04-10T09:18:35.936Z,13.40
2024-04-10T09:23:43.100Z,13.47
2024-04-10T09:28:47.517Z,13.40
2024-04-10T09:33:52.797Z,13.20
2024-04-10T09:39:04.374Z,13.28
2024-04-10T09:44:14.373Z,13.72
2024-04-10T09:49:22.656Z,13.48
2024-04-10T09:54:29.963Z,13.42
2024-04-10T09:59:36.857Z,13.76
2024-04-10T10:04:41.820Z,13.50
2024-04-10T10:09:49.600Z,13.71
2024-04-10T10:14:54.204Z,13.98
2024-04-10T10:19:59.804Z,14.23
2024-04-10T10:25:08.246Z,14.09
2024-04-10T10:30:13.385Z,14.49
2024-04-10T10:35:20.216Z,14.54
2024-04-10T10:40:27.944Z,14.69
2024-04-10T10:45:33.885Z,14.63
2024-04-10T10:50:38.646Z,14.82
2024-04-10T10:55:56.094Z,14.50
2024-04-10T11:01:00.666Z,14.79
2024-04-10T11:06:12.104Z,14.42
2024-04-10T11:11:20.154Z,15.13
2024-04-10T11:16:30.545Z,15.08
2024-04-10T11:21:38.108Z,14.97
2024-04-10T11:26:47.208Z,14.21
2024-04-10T11:31:52.065Z,15.04
2024-04-10T11:36:57.804Z,15.17
2024-04-10T11:42:05.052Z,14.60
2024-04-10T11:47:10.243Z,14.91
2024-04-10T11:52:14.742Z,15.31
2024-04-10T11:57:21.819Z,15.38
2024-04-10T12:02:26.582Z,15.63
2024-04-10T12:07:31.306Z,15.90
2024-04-10T12:12:38.920Z,16.15
2024-04-10T12:17:43.682Z,16.28
2024-04-10T12:22:48.540Z,16.53
2024-04-10T12:27:56.079Z,16.62
2024-04-10T12:33:00.852Z,17.09
2024-04-10T12:38:11.203Z,16.93
2024-04-10T12:43:18.222Z,16.60
2024-04-10T12:48:22.816Z,16.39
2024-04-10T12:53:27.362Z,16.79
2024-04-10T12:58:34.935Z,16.81
2024-04-10T13:03:39.578Z,17.42
2024-04-10T13:08:46.628Z,17.87
2024-04-10T13:13:53.709Z,17.83
2024-04-10T13:18:58.393Z,17.54
2024-04-10T13:24:03.468Z,17.75
2024-04-10T13:29:10.681Z,18.13
2024-04-10T13:34:16.312Z,18.85
2024-04-10T13:39:21.079Z,18.37
2024-04-10T13:44:29.381Z,18.80
2024-04-10T13:49:34.773Z,18.82
2024-04-10T13:54:47.098Z,18.49
2024-04-10T13:59:55.340Z,18.69
2024-04-10T14:05:00.001Z,19.01
2024-04-10T14:10:08.019Z,19.00
2024-04-10T14:15:15.141Z,19.10
2024-04-10T14:20:19.841Z,18.89
2024-04-10T14:25:25.586Z,18.26
2024-04-10T14:30:40.714Z,19.19
2024-04-10T14:35:51.815Z,18.17
2024-04-10T14:40:56.693Z,18.87
2024-04-10T14:46:09.333Z,18.50
2024-04-10T14:51:14.526Z,16.77
2024-04-10T14:56:20.756Z,18.08
2024-04-10T15:01:28.863Z,17.67
2024-04-10T15:06:33.307Z,17.92
2024-04-10T15:11:39.718Z,17.76
2024-04-10T15:16:53.551Z,16.89
2024-04-10T15:21:58.130Z,17.74
2024-04-10T15:27:02.697Z,17.82
2024-04-10T15:32:10.422Z,17.08
2024-04-10T15:37:14.866Z,16.49
2024-04-10T15:42:19.890Z,16.51
2024-04-10T15:47:27.974Z,16.89
2024-04-10T15:57:42.828Z,16.25
2024-04-10T16:02:50.214Z,16.54
2024-04-10T16:07:55.142Z,16.79
2024-04-10T16:12:59.599Z,16.71
2024-04-10T16:18:07.144Z,16.56
2024-04-10T16:23:12.908Z,16.06
2024-04-10T16:28:17.421Z,16.03
2024-04-10T16:34:50.037Z,16.51
2024-04-10T16:39:54.467Z,16.54
2024-04-10T16:44:58.925Z,16.25
2024-04-10T16:50:06.993Z,15.98
2024-04-10T16:55:11.409Z,16.01
2024-04-10T17:00:16.890Z,16.07
2024-04-10T17:05:23.993Z,16.00
2024-04-10T17:10:28.418Z,15.98
2024-04-10T17:15:32.808Z,16.04
2024-04-10T17:20:56.517Z,15.94
2024-04-10T17:26:02.435Z,15.89
2024-04-10T17:31:07.385Z,15.96
2024-04-10T17:36:15.431Z,15.38
2024-04-10T17:41:19.918Z,15.52
2024-04-10T17:46:24.455Z,15.62
2024-04-10T17:51:31.465Z,15.61
2024-04-10T17:56:36.022Z,15.53
2024-04-10T18:01:40.894Z,15.38
2024-04-10T18:06:47.886Z,15.28
2024-04-10T18:11:52.374Z,15.25
2024-04-10T18:16:56.817Z,15.08
2024-04-10T18:22:03.858Z,15.20
2024-04-10T18:27:08.685Z,15.14
2024-04-10T18:32:13.111Z,14.97
2024-04-10T18:37:20.253Z,14.84
2024-04-10T18:42:24.983Z,14.89
2024-04-10T18:47:29.475Z,14.74
2024-04-10T18:52:36.736Z,14.75
2024-04-10T18:57:41.118Z,14.43
2024-04-10T19:02:45.665Z,14.56
2024-04-10T19:07:52.664Z,14.22
2024-04-10T19:12:58.143Z,14.15
2024-04-10T19:18:02.544Z,14.00
2024-04-10T19:23:09.667Z,13.82
2024-04-10T19:28:14.032Z,13.74
2024-04-10T19:33:18.771Z,13.86
2024-04-10T19:38:26.446Z,13.81
2024-04-10T19:43:30.910Z,13.17
2024-04-10T19:48:35.460Z,13.55
2024-04-10T19:53:43.291Z,13.54
2024-04-10T19:58:48.399Z,13.70
2024-04-10T20:03:54.077Z,13.71
2024-04-10T20:09:05.344Z,13.58
2024-04-10T20:14:09.868Z,13.47
2024-04-10T20:19:14.993Z,13.52
2024-04-10T20:24:24.735Z,13.43
2024-04-10T20:29:29.216Z,13.43
2024-04-10T20:34:34.033Z,13.24
2024-04-10T20:39:41.879Z,13.22
2024-04-10T20:44:48.726Z,13.23
2024-04-10T20:49:55.689Z,13.19
2024-04-10T20:55:04.148Z,12.84
2024-04-10T21:00:10.227Z,12.58
2024-04-10T21:05:15.059Z,12.76
2024-04-10T21:10:38.700Z,12.70
2024-04-10T21:16:02.082Z,12.79
2024-04-10T21:21:24.307Z,12.87
2024-04-10T21:26:48.832Z,12.81
2024-04-10T21:32:09.600Z,12.89
2024-04-10T21:37:30.185Z,12.93
2024-04-10T21:42:53.349Z,12.88
2024-04-10T21:48:14.147Z,12.85
2024-04-10T21:53:34.925Z,12.95
2024-04-10T21:58:57.875Z,12.56
2024-04-10T22:04:18.563Z,12.67
2024-04-10T22:09:22.766Z,12.55
2024-04-10T22:14:30.760Z,12.70
2024-04-10T22:19:52.084Z,12.46
2024-04-10T22:24:56.561Z,12.63
2024-04-10T22:30:03.843Z,12.74
2024-04-10T22:35:10.840Z,12.54
2024-04-10T22:40:15.247Z,12.46
2024-04-10T22:45:22.225Z,12.40
2024-04-10T22:50:26.679Z,12.21
2024-04-10T22:55:31.109Z,12.02
2024-04-10T23:00:38.041Z,12.04
2024-04-10T23:05:49.454Z,12.05
2024-04-10T23:11:00.464Z,12.14
2024-04-10T23:16:08.642Z,11.87
2024-04-10T23:21:13.069Z,12.04
2024-04-10T23:26:17.454Z,12.09
2024-04-10T23:31:24.843Z,12.15
2024-04-10T23:36:29.217Z,12.10
2024-04-10T23:41:34.802Z,12.00
2024-04-10T23:46:41.947Z,12.08
2024-04-10T23:51:46.391Z,12.03
2024-04-10T23:56:50.792Z,12.09
